createdAt,value
2019-04-11T00:01:44.971Z,6.30
2019-04-11T00:04:06.304Z,5.57
2019-04-11T00:06:34.059Z,6.30
2019-04-11T00:09:00.770Z,6.40
2019-04-11T00:11:28.199Z,6.40
2019-04-11T00:13:57.763Z,5.40
2019-04-11T00:16:25.630Z,6.50
2019-04-11T00:18:52.675Z,5.63
2019-04-11T00:21:20.416Z,5.53
2019-04-11T00:23:48.283Z,5.83
2019-04-11T00:26:15.975Z,6.23
2019-04-11T00:28:43.135Z,5.47
2019-04-11T00:31:10.159Z,6.07
2019-04-11T00:33:36.938Z,5.60
2019-04-11T00:36:04.197Z,5.70
2019-04-11T00:38:32.037Z,5.33
2019-04-11T00:40:59.696Z,5.03
2019-04-11T00:43:31.801Z,6.17
2019-04-11T00:45:56.102Z,5.47
2019-04-11T00:48:23.779Z,5.50
2019-04-11T00:50:51.715Z,5.03
2019-04-11T00:53:20.472Z,5.17
2019-04-11T00:55:48.086Z,5.50
2019-04-11T00:58:15.733Z,5.13
2019-04-11T01:00:42.998Z,4.97
2019-04-11T01:03:09.807Z,5.40
2019-04-11T01:05:37.626Z,5.03
2019-04-11T01:08:05.254Z,4.70
2019-04-11T01:10:34.045Z,4.80
2019-04-11T01:13:00.845Z,5.00
2019-04-11T01:15:27.526Z,4.10
2019-04-11T01:17:54.167Z,4.93
2019-04-11T01:20:21.592Z,4.77
2019-04-11T01:22:50.731Z,4.90
2019-04-11T01:25:17.814Z,4.80
2019-04-11T01:27:44.426Z,4.37
2019-04-11T01:30:15.749Z,5.27
2019-04-11T01:32:42.478Z,4.70
2019-04-11T01:35:09.568Z,3.73
2019-04-11T01:37:37.186Z,4.93
2019-04-11T01:40:04.039Z,3.90
2019-04-11T01:42:31.262Z,4.60
2019-04-11T01:44:58.111Z,4.00
2019-04-11T01:47:35.829Z,4.03
2019-04-11T01:50:03.088Z,4.90
2019-04-11T01:52:30.636Z,5.27
2019-04-11T01:54:57.523Z,5.30
2019-04-11T01:57:25.397Z,5.67
2019-04-11T01:59:53.341Z,4.53
2019-04-11T02:02:40.970Z,5.23
2019-04-11T02:05:25.591Z,4.43
2019-04-11T02:07:53.279Z,4.83
2019-04-11T02:10:21.039Z,5.17
2019-04-11T02:12:47.809Z,5.00
2019-04-11T02:15:16.375Z,4.87
2019-04-11T02:17:44.559Z,5.10
2019-04-11T02:20:12.516Z,6.50
2019-04-11T02:22:48.781Z,5.40
2019-04-11T02:25:40.752Z,4.50
2019-04-11T02:28:08.859Z,5.23
2019-04-11T02:30:38.633Z,5.40
2019-04-11T02:33:07.125Z,4.63
2019-04-11T02:35:35.343Z,4.67
2019-04-11T02:38:02.967Z,5.07
2019-04-11T02:40:30.621Z,4.60
2019-04-11T02:42:59.509Z,5.23
2019-04-11T02:45:39.828Z,5.10
2019-04-11T02:47:56.533Z,5.17
2019-04-11T02:50:26.505Z,4.80
2019-04-11T02:52:53.600Z,5.00
2019-04-11T02:55:21.182Z,5.67
2019-04-11T02:57:50.181Z,4.90
2019-04-11T03:00:20.361Z,5.03
2019-04-11T03:02:47.895Z,6.07
2019-04-11T03:05:16.416Z,5.40
2019-04-11T03:07:43.265Z,5.83
2019-04-11T03:10:13.417Z,6.53
2019-04-11T03:12:40.375Z,6.10
2019-04-11T03:15:24.253Z,5.57
2019-04-11T03:17:41.031Z,5.80
2019-04-11T03:20:18.373Z,5.70
2019-04-11T03:22:34.398Z,6.00
2019-04-11T03:25:03.145Z,6.50
2019-04-11T03:27:32.413Z,5.73
2019-04-11T03:30:00.280Z,6.50
2019-04-11T03:35:50.895Z,6.30
2019-04-11T03:37:53.931Z,4.93
2019-04-11T03:40:17.063Z,5.03
2019-04-11T03:42:41.721Z,4.50
2019-04-11T03:45:18.858Z,5.87
2019-04-11T03:47:38.808Z,6.53
2019-04-11T03:50:01.682Z,6.20
2019-04-11T03:52:23.737Z,6.10
2019-04-11T03:54:51.324Z,5.93
2019-04-11T03:57:19.207Z,6.60
2019-04-11T03:59:47.733Z,7.03
2019-04-11T04:02:16.794Z,7.23
2019-04-11T04:04:45.584Z,6.00
2019-04-11T04:07:14.221Z,6.17
2019-04-11T04:09:44.052Z,6.73
2019-04-11T04:12:11.423Z,6.07
2019-04-11T04:14:46.785Z,6.87
2019-04-11T04:17:27.997Z,4.93
2019-04-11T04:20:11.068Z,7.67
2019-04-11T04:22:44.061Z,7.27
2019-04-11T04:25:14.312Z,7.47
2019-04-11T04:27:42.772Z,5.70
2019-04-11T04:30:11.015Z,6.07
2019-04-11T04:32:40.458Z,7.50
2019-04-11T04:35:12.740Z,6.73
2019-04-11T04:37:38.602Z,6.50
2019-04-11T04:40:24.011Z,7.10
2019-04-11T04:42:40.232Z,6.03
2019-04-11T04:45:05.054Z,6.07
2019-04-11T04:47:42.714Z,6.53
2019-04-11T04:50:03.999Z,6.00
2019-04-11T04:52:32.635Z,6.43
2019-04-11T04:55:01.366Z,6.17
2019-04-11T04:57:29.735Z,6.90
2019-04-11T04:59:57.835Z,6.73
2019-04-11T05:02:26.104Z,7.17
2019-04-11T05:04:54.261Z,6.40
2019-04-11T05:07:23.618Z,7.00
2019-04-11T05:09:50.791Z,7.27
2019-04-11T05:12:18.456Z,6.90
2019-04-11T05:14:45.684Z,7.10
2019-04-11T05:17:12.943Z,6.20
2019-04-11T05:19:40.440Z,6.13
2019-04-11T05:22:08.552Z,6.70
2019-04-11T05:24:36.895Z,6.20
2019-04-11T05:27:04.185Z,7.60
2019-04-11T05:29:32.131Z,7.43
2019-04-11T05:31:59.773Z,7.00
2019-04-11T05:34:28.274Z,7.17
2019-04-11T05:36:55.875Z,6.17
2019-04-11T05:39:23.403Z,7.13
2019-04-11T05:41:51.308Z,5.93
2019-04-11T05:44:18.835Z,7.13
2019-04-11T05:46:52.330Z,6.00
2019-04-11T05:49:23.273Z,6.47
2019-04-11T05:52:00.374Z,6.17
2019-04-11T05:54:31.723Z,6.10
2019-04-11T05:57:01.256Z,6.70
2019-04-11T05:59:28.713Z,6.67
2019-04-11T06:02:06.940Z,6.83
2019-04-11T06:04:36.357Z,7.07
2019-04-11T06:07:09.918Z,5.67
2019-04-11T06:09:40.069Z,7.50
2019-04-11T06:12:17.201Z,7.13
2019-04-11T06:14:49.291Z,6.83
2019-04-11T06:17:18.446Z,7.07
2019-04-11T06:20:14.443Z,6.30
2019-04-11T06:22:51.128Z,6.00
2019-04-11T06:25:53.396Z,6.00
2019-04-11T06:28:24.478Z,7.00
2019-04-11T06:31:26.350Z,6.40
2019-04-11T06:34:02.418Z,6.13
2019-04-11T06:36:48.230Z,7.07
2019-04-11T06:39:35.662Z,5.53
2019-04-11T06:42:22.929Z,5.40
2019-04-11T06:45:15.536Z,5.70
2019-04-11T06:48:09.370Z,7.07
2019-04-11T06:51:05.945Z,5.63
2019-04-11T06:53:36.557Z,5.90
2019-04-11T06:56:41.418Z,5.20
2019-04-11T06:59:12.362Z,5.20
2019-04-11T07:01:42.607Z,5.07
2019-04-11T07:04:32.170Z,4.30
2019-04-11T07:07:00.165Z,5.40
2019-04-11T07:09:49.215Z,4.80
2019-04-11T07:12:20.827Z,5.50
2019-04-11T07:15:10.631Z,5.03
2019-04-11T07:17:56.651Z,4.70
2019-04-11T07:20:45.955Z,4.80
2019-04-11T07:23:31.171Z,4.90
2019-04-11T07:26:06.596Z,5.40
2019-04-11T07:28:52.274Z,5.10
2019-04-11T07:31:48.284Z,5.73
2019-04-11T07:34:50.023Z,5.10
2019-04-11T07:37:49.400Z,4.90
2019-04-11T07:40:35.291Z,5.43
2019-04-11T07:43:20.798Z,4.77
2019-04-11T07:46:12.943Z,5.10
2019-04-11T07:48:42.614Z,5.33
2019-04-11T07:51:41.139Z,5.70
2019-04-11T07:54:20.279Z,6.27
2019-04-11T07:56:55.109Z,7.60
2019-04-11T07:59:31.919Z,6.23
2019-04-11T08:02:16.443Z,6.40
2019-04-11T08:05:06.666Z,5.70
2019-04-11T08:08:05.295Z,5.53
2019-04-11T08:10:37.217Z,5.80
2019-04-11T08:13:08.647Z,4.90
2019-04-11T08:16:10.573Z,4.93
2019-04-11T08:18:57.159Z,4.43
2019-04-11T08:21:42.543Z,4.50
2019-04-11T08:24:14.173Z,3.70
2019-04-11T08:26:59.538Z,3.63
2019-04-11T08:29:28.335Z,3.00
2019-04-11T08:32:13.798Z,2.97
2019-04-11T08:34:51.289Z,3.70
2019-04-11T08:37:35.785Z,3.17
2019-04-11T08:40:03.928Z,2.60
2019-04-11T08:42:52.864Z,3.10
2019-04-11T08:45:21.596Z,2.40
2019-04-11T08:47:54.559Z,2.70
2019-04-11T08:50:24.162Z,2.90
2019-04-11T08:53:29.302Z,2.70
2019-04-11T08:56:01.027Z,3.37
2019-04-11T08:58:36.411Z,2.67
2019-04-11T09:01:05.440Z,3.23
2019-04-11T09:04:02.080Z,3.00
2019-04-11T09:06:28.887Z,2.57
2019-04-11T09:09:16.163Z,2.67
2019-04-11T09:11:47.011Z,2.60
2019-04-11T09:14:46.392Z,2.10
2019-04-11T09:17:16.483Z,2.70
2019-04-11T09:20:05.617Z,2.43
2019-04-11T09:22:41.667Z,3.23
2019-04-11T09:25:28.992Z,2.13
2019-04-11T09:28:15.479Z,2.37
2019-04-11T09:31:13.699Z,1.83
2019-04-11T09:34:03.781Z,2.13
2019-04-11T09:36:45.165Z,2.67
2019-04-11T09:39:21.682Z,2.50
2019-04-11T09:42:10.020Z,2.00
2019-04-11T09:44:53.155Z,2.20
2019-04-11T09:47:36.250Z,2.17
2019-04-11T09:50:04.675Z,2.10
2019-04-11T09:52:36.859Z,1.80
2019-04-11T09:55:41.671Z,2.70
2019-04-11T09:58:23.170Z,2.47
2019-04-11T10:01:12.439Z,2.47
2019-04-11T10:03:40.922Z,2.10
2019-04-11T10:06:28.107Z,1.70
2019-04-11T10:08:57.709Z,2.20
2019-04-11T10:11:46.915Z,2.00
2019-04-11T10:14:17.890Z,2.80
2019-04-11T10:17:04.445Z,2.57
2019-04-11T10:19:42.289Z,2.70
2019-04-11T10:22:22.947Z,2.63
2019-04-11T10:25:10.689Z,1.90
2019-04-11T10:28:03.048Z,2.17
2019-04-11T10:30:58.037Z,1.87
2019-04-11T10:33:41.417Z,2.10
2019-04-11T10:36:29.999Z,2.30
2019-04-11T10:39:35.426Z,2.00
2019-04-11T10:42:06.352Z,2.07
2019-04-11T10:44:50.928Z,2.30
2019-04-11T10:47:22.805Z,1.97
2019-04-11T10:50:19.590Z,1.73
2019-04-11T10:52:50.850Z,1.80
2019-04-11T10:55:23.839Z,2.00
2019-04-11T10:58:02.708Z,2.00
2019-04-11T11:00:35.582Z,2.13
2019-04-11T11:03:27.300Z,2.37
2019-04-11T11:05:57.609Z,1.80
2019-04-11T11:08:56.211Z,1.80
2019-04-11T11:11:30.975Z,1.70
2019-04-11T11:14:24.781Z,1.93
2019-04-11T11:17:39.008Z,2.00
2019-04-11T11:20:22.357Z,2.53
2019-04-11T11:23:02.876Z,2.70
2019-04-11T11:25:48.364Z,1.87
2019-04-11T11:28:12.272Z,2.30
2019-04-11T11:31:03.197Z,1.77
2019-04-11T11:33:32.092Z,2.10
2019-04-11T11:36:26.435Z,1.80
2019-04-11T11:39:08.879Z,2.00
2019-04-11T11:42:02.100Z,2.60
2019-04-11T11:44:48.833Z,2.03
2019-04-11T11:47:38.056Z,2.53
2019-04-11T11:50:05.751Z,2.50
2019-04-11T11:52:54.213Z,2.10
2019-04-11T11:55:23.622Z,2.83
2019-04-11T11:58:06.884Z,2.37
2019-04-11T12:00:33.703Z,2.43
2019-04-11T12:03:13.058Z,2.47
2019-04-11T12:05:50.275Z,1.70
2019-04-11T12:08:24.440Z,2.03
2019-04-11T12:11:01.773Z,3.40
2019-04-11T12:13:47.481Z,2.13
2019-04-11T12:16:20.871Z,2.20
2019-04-11T12:19:05.279Z,2.27
2019-04-11T12:21:34.567Z,2.10
2019-04-11T12:24:30.835Z,2.03
2019-04-11T12:27:10.228Z,2.50
2019-04-11T12:29:50.458Z,1.90
2019-04-11T12:32:22.148Z,1.77
2019-04-11T12:34:59.801Z,2.80
2019-04-11T12:37:32.147Z,2.03
2019-04-11T12:40:17.416Z,2.50
2019-04-11T12:42:44.071Z,2.50
2019-04-11T12:45:29.339Z,3.07
2019-04-11T12:47:59.451Z,2.43
2019-04-11T12:50:44.726Z,4.37
2019-04-11T12:53:14.022Z,3.70
2019-04-11T12:56:03.191Z,2.83
2019-04-11T12:58:51.640Z,2.70
2019-04-11T13:01:36.636Z,2.50
2019-04-11T13:04:38.580Z,2.13
2019-04-11T13:07:33.921Z,2.23
2019-04-11T13:10:17.707Z,2.10
2019-04-11T13:13:18.831Z,2.33
2019-04-11T13:15:54.684Z,2.20
2019-04-11T13:18:30.864Z,2.80
2019-04-11T13:21:05.059Z,2.50
2019-04-11T13:23:54.359Z,2.67
2019-04-11T13:26:44.361Z,2.50
2019-04-11T13:29:21.108Z,2.50
2019-04-11T13:32:06.151Z,2.90
2019-04-11T13:34:35.498Z,2.10
2019-04-11T13:37:20.259Z,2.07
2019-04-11T13:39:52.626Z,2.43
2019-04-11T13:42:28.775Z,2.67
2019-04-11T13:44:55.739Z,2.60
2019-04-11T13:47:48.387Z,2.17
2019-04-11T13:50:17.058Z,2.50
2019-04-11T13:53:03.470Z,2.60
2019-04-11T13:55:32.920Z,2.20
2019-04-11T13:58:17.577Z,2.23
2019-04-11T14:01:02.807Z,3.00
2019-04-11T14:03:52.183Z,2.70
2019-04-11T14:06:26.207Z,2.50
2019-04-11T14:09:24.879Z,2.90
2019-04-11T14:11:56.595Z,2.87
2019-04-11T14:14:26.743Z,2.40
2019-04-11T14:17:12.666Z,3.07
2019-04-11T14:19:57.591Z,2.67
2019-04-11T14:22:29.146Z,3.00
2019-04-11T14:25:15.560Z,4.13
2019-04-11T14:27:42.847Z,2.70
2019-04-11T14:30:21.210Z,3.00
2019-04-11T14:32:47.899Z,2.43
2019-04-11T14:35:32.799Z,3.07
2019-04-11T14:38:08.955Z,2.90
2019-04-11T14:40:43.375Z,2.63
2019-04-11T14:43:29.519Z,2.63
2019-04-11T14:46:15.639Z,3.40
2019-04-11T14:48:44.678Z,2.47
2019-04-11T14:51:33.663Z,3.07
2019-04-11T14:54:06.956Z,2.77
2019-04-11T14:56:35.599Z,2.77
2019-04-11T14:59:23.965Z,1.87
2019-04-11T15:01:51.919Z,2.30
2019-04-11T15:04:30.371Z,2.80
2019-04-11T15:06:57.018Z,3.07
2019-04-11T15:09:51.865Z,2.70
2019-04-11T15:12:21.818Z,2.83
2019-04-11T15:15:11.809Z,2.93
2019-04-11T15:17:43.351Z,2.70
2019-04-11T15:20:53.881Z,2.90
2019-04-11T15:23:14.391Z,3.53
2019-04-11T15:26:09.426Z,3.27
2019-04-11T15:28:54.196Z,3.47
2019-04-11T15:31:46.731Z,3.23
2019-04-11T15:34:21.759Z,3.07
2019-04-11T15:37:20.558Z,3.93
2019-04-11T15:40:07.442Z,3.33
2019-04-11T15:42:56.376Z,3.20
2019-04-11T15:45:46.480Z,3.87
2019-04-11T15:48:30.152Z,3.90
2019-04-11T15:51:35.134Z,3.60
2019-04-11T15:54:27.307Z,3.80
2019-04-11T15:57:06.988Z,3.30
2019-04-11T15:59:56.359Z,3.23
2019-04-11T16:02:51.891Z,3.70
2019-04-11T16:05:38.039Z,2.80
2019-04-11T16:08:15.595Z,3.40
2019-04-11T16:10:49.303Z,3.20
2019-04-11T16:13:33.787Z,3.13
2019-04-11T16:16:06.712Z,3.60
2019-04-11T16:18:54.067Z,3.40
2019-04-11T16:21:25.966Z,4.80
2019-04-11T16:24:02.848Z,4.00
2019-04-11T16:26:39.635Z,3.07
2019-04-11T16:29:26.110Z,3.20
2019-04-11T16:31:54.502Z,3.40
2019-04-11T16:34:48.628Z,3.90
2019-04-11T16:37:17.509Z,3.23
2019-04-11T16:40:01.623Z,3.53
2019-04-11T16:42:35.347Z,3.00
2019-04-11T16:45:24.735Z,3.17
2019-04-11T16:48:02.141Z,3.77
2019-04-11T16:50:30.463Z,3.40
2019-04-11T16:52:57.147Z,5.37
2019-04-11T16:55:24.153Z,4.20
2019-04-11T16:57:51.506Z,3.43
2019-04-11T17:00:20.580Z,3.60
2019-04-11T17:02:47.898Z,3.67
2019-04-11T17:05:15.619Z,5.13
2019-04-11T17:07:50.651Z,3.70
2019-04-11T17:10:18.716Z,3.40
2019-04-11T17:12:46.097Z,4.57
2019-04-11T17:15:13.022Z,3.33
2019-04-11T17:17:39.981Z,4.53
2019-04-11T17:20:07.741Z,4.63
2019-04-11T17:22:34.479Z,5.20
2019-04-11T17:25:01.619Z,5.93
2019-04-11T17:27:28.351Z,5.25
2019-04-11T17:29:55.727Z,5.05
2019-04-11T17:32:23.625Z,5.25
2019-04-11T17:34:52.023Z,4.90
2019-04-11T17:37:19.676Z,5.05
2019-04-11T17:39:48.204Z,4.72
2019-04-11T17:42:14.839Z,6.17
2019-04-11T17:44:42.863Z,4.50
2019-04-11T17:47:10.236Z,4.93
2019-04-11T17:49:36.887Z,4.47
2019-04-11T17:52:05.790Z,5.73
2019-04-11T17:54:34.787Z,5.73
2019-04-11T17:57:02.248Z,5.83
2019-04-11T17:59:29.441Z,4.60
2019-04-11T18:01:56.462Z,5.53
2019-04-11T18:04:23.147Z,5.80
2019-04-11T18:06:49.808Z,6.10
2019-04-11T18:09:16.446Z,5.90
2019-04-11T18:11:43.066Z,5.10
2019-04-11T18:14:09.703Z,5.63
2019-04-11T18:16:36.349Z,6.40
2019-04-11T18:19:05.753Z,6.07
2019-04-11T18:21:32.103Z,7.20
2019-04-11T18:23:59.863Z,5.90
2019-04-11T18:26:26.535Z,6.13
2019-04-11T18:28:53.667Z,6.50
2019-04-11T18:31:24.789Z,6.07
2019-04-11T18:33:51.176Z,5.70
2019-04-11T18:36:19.246Z,6.60
2019-04-11T18:38:45.883Z,5.60
2019-04-11T18:41:13.730Z,6.67
2019-04-11T18:43:40.599Z,5.47
2019-04-11T18:46:09.370Z,5.53
2019-04-11T18:48:36.000Z,6.13
2019-04-11T18:51:02.756Z,6.20
2019-04-11T18:53:29.465Z,5.10
2019-04-11T18:55:56.804Z,6.03
2019-04-11T18:58:23.811Z,5.87
2019-04-11T19:00:50.834Z,6.03
2019-04-11T19:03:17.739Z,5.70
2019-04-11T19:05:45.108Z,7.30
2019-04-11T19:08:13.151Z,6.23
2019-04-11T19:10:42.879Z,7.50
2019-04-11T19:13:10.326Z,5.97
2019-04-11T19:15:37.188Z,6.77
2019-04-11T19:18:06.488Z,5.90
2019-04-11T19:20:32.910Z,6.00
2019-04-11T19:22:59.545Z,6.00
2019-04-11T19:25:26.284Z,6.57
2019-04-11T19:27:54.318Z,5.30
2019-04-11T19:30:23.985Z,6.10
2019-04-11T19:32:50.656Z,6.23
2019-04-11T19:35:18.459Z,7.63
2019-04-11T19:37:46.102Z,6.00
2019-04-11T19:40:16.140Z,6.20
2019-04-11T19:42:42.783Z,6.73
2019-04-11T19:45:09.423Z,6.10
2019-04-11T19:47:36.203Z,5.70
2019-04-11T19:50:03.178Z,6.60
2019-04-11T19:52:45.041Z,6.20
2019-04-11T19:55:16.767Z,6.40
2019-04-11T19:57:43.399Z,5.67
2019-04-11T20:00:12.690Z,6.53
2019-04-11T20:02:40.055Z,6.33
2019-04-11T20:05:07.103Z,7.37
2019-04-11T20:07:34.356Z,7.60
2019-04-11T20:10:02.119Z,5.80
2019-04-11T20:12:31.003Z,6.93
2019-04-11T20:15:00.051Z,7.80
2019-04-11T20:17:27.299Z,8.00
2019-04-11T20:20:01.254Z,7.63
2019-04-11T20:22:23.007Z,7.30
2019-04-11T20:24:51.986Z,7.37
2019-04-11T20:27:20.379Z,7.10
2019-04-11T20:29:51.057Z,6.47
2019-04-11T20:32:17.872Z,9.33
2019-04-11T20:34:45.144Z,7.87
2019-04-11T20:37:13.737Z,6.27
2019-04-11T20:39:40.871Z,7.10
2019-04-11T20:42:07.775Z,8.00
2019-04-11T20:44:34.955Z,8.03
2019-04-11T20:47:01.991Z,9.33
2019-04-11T20:49:32.379Z,8.20
2019-04-11T20:51:59.344Z,8.27
2019-04-11T20:54:27.931Z,8.10
2019-04-11T20:56:54.559Z,7.70
2019-04-11T20:59:21.196Z,7.83
2019-04-11T21:01:47.846Z,7.77
2019-04-11T21:04:14.599Z,7.23
2019-04-11T21:06:44.131Z,7.50
2019-04-11T21:09:11.989Z,8.20
2019-04-11T21:11:39.299Z,7.50
2019-04-11T21:14:06.466Z,10.80
2019-04-11T21:16:33.127Z,7.23
2019-04-11T21:19:00.426Z,7.30
2019-04-11T21:21:27.057Z,6.83
2019-04-11T21:23:54.426Z,6.73
2019-04-11T21:26:21.363Z,7.07
2019-04-11T21:28:48.323Z,7.53
2019-04-11T21:31:15.763Z,6.57
2019-04-11T21:33:42.706Z,6.20
2019-04-11T21:36:09.859Z,6.17
2019-04-11T21:38:36.854Z,6.20
2019-04-11T21:41:05.901Z,7.17
2019-04-11T21:43:35.927Z,6.87
2019-04-11T21:46:04.057Z,6.13
2019-04-11T21:48:31.372Z,6.00
2019-04-11T21:50:58.393Z,6.40
2019-04-11T21:53:36.046Z,6.60
2019-04-11T21:55:55.703Z,6.10
2019-04-11T21:58:22.703Z,5.43
2019-04-11T22:00:54.291Z,6.30
2019-04-11T22:03:24.276Z,6.10
2019-04-11T22:05:50.759Z,6.60
2019-04-11T22:08:18.674Z,6.67
2019-04-11T22:10:45.535Z,6.23
2019-04-11T22:13:12.766Z,5.80
2019-04-11T22:15:42.085Z,6.23
2019-04-11T22:18:08.902Z,5.63
2019-04-11T22:20:36.271Z,5.70
2019-04-11T22:23:03.023Z,6.40
2019-04-11T22:25:30.863Z,6.53
2019-04-11T22:27:57.834Z,5.80
2019-04-11T22:30:25.341Z,6.23
2019-04-11T22:32:58.935Z,6.70
2019-04-11T22:35:28.621Z,5.00
2019-04-11T22:37:54.759Z,6.10
2019-04-11T22:40:21.423Z,6.00
2019-04-11T22:42:48.075Z,5.70
2019-04-11T22:45:15.159Z,5.90
2019-04-11T22:47:41.915Z,6.03
2019-04-11T22:50:10.105Z,5.00
2019-04-11T22:52:39.804Z,5.37
2019-04-11T22:55:11.033Z,5.37
2019-04-11T22:57:35.899Z,5.43
2019-04-11T23:00:03.663Z,5.33
2019-04-11T23:02:49.634Z,5.17
2019-04-11T23:05:17.311Z,5.78
2019-04-11T23:07:45.872Z,4.90
2019-04-11T23:10:17.116Z,5.00
2019-04-11T23:12:45.792Z,5.30
2019-04-11T23:15:14.660Z,4.90
2019-04-11T23:17:41.778Z,5.45
2019-04-11T23:20:11.851Z,5.70
2019-04-11T23:22:42.809Z,5.12
2019-04-11T23:25:09.460Z,5.63
2019-04-11T23:27:37.525Z,5.40
2019-04-11T23:30:04.991Z,4.95
2019-04-11T23:32:33.766Z,5.87
2019-04-11T23:35:00.818Z,4.60
2019-04-11T23:37:29.914Z,5.65
2019-04-11T23:39:56.967Z,4.80
2019-04-11T23:42:24.323Z,4.33
2019-04-11T23:44:51.400Z,4.47
2019-04-11T23:47:20.129Z,4.87
2019-04-11T23:49:47.515Z,5.72
2019-04-11T23:52:15.959Z,6.00
2019-04-11T23:54:43.473Z,5.15
2019-04-11T23:57:12.744Z,4.90
2019-04-11T23:59:39.710Z,5.03
